sensor_id;sensor_type;location;lat;lon;timestamp;pressure;altitude;pressure_sealevel;temperature;humidity
81970;BME280;71469;51.826;4.394;2023-07-20T00:01:43;101627.13;;;17.02;80.33
81970;BME280;71469;51.826;4.394;2023-07-20T00:04:10;101625.25;;;16.95;80.38
81970;BME280;71469;51.826;4.394;2023-07-20T00:06:35;101629.38;;;16.88;80.58
81970;BME280;71469;51.826;4.394;2023-07-20T00:09:00;101620.59;;;16.79;80.88
81970;BME280;71469;51.826;4.394;2023-07-20T00:11:27;101631.34;;;16.76;81.14
81970;BME280;71469;51.826;4.394;2023-07-20T00:13:52;101622.28;;;16.71;81.25
81970;BME280;71469;51.826;4.394;2023-07-20T00:16:18;101635.78;;;16.66;81.58
81970;BME280;71469;51.826;4.394;2023-07-20T00:18:43;101638.25;;;16.68;81.58
81970;BME280;71469;51.826;4.394;2023-07-20T00:21:09;101630.00;;;16.72;81.15
81970;BME280;71469;51.826;4.394;2023-07-20T00:23:35;101634.66;;;16.78;81.18
81970;BME280;71469;51.826;4.394;2023-07-20T00:26:00;101632.06;;;16.78;81.08
81970;BME280;71469;51.826;4.394;2023-07-20T00:28:25;101637.13;;;16.70;81.16
81970;BME280;71469;51.826;4.394;2023-07-20T00:30:51;101642.53;;;16.69;81.54
81970;BME280;71469;51.826;4.394;2023-07-20T00:33:17;101641.97;;;16.65;81.43
81970;BME280;71469;51.826;4.394;2023-07-20T00:35:43;101628.91;;;16.65;81.63
81970;BME280;71469;51.826;4.394;2023-07-20T00:38:09;101639.09;;;16.68;81.84
81970;BME280;71469;51.826;4.394;2023-07-20T00:40:38;101633.69;;;16.70;81.81
81970;BME280;71469;51.826;4.394;2023-07-20T00:43:04;101637.44;;;16.67;82.28
81970;BME280;71469;51.826;4.394;2023-07-20T00:45:29;101637.44;;;16.67;82.15
81970;BME280;71469;51.826;4.394;2023-07-20T00:47:56;101631.06;;;16.70;81.88
81970;BME280;71469;51.826;4.394;2023-07-20T00:50:22;101644.03;;;16.71;81.95
81970;BME280;71469;51.826;4.394;2023-07-20T00:52:48;101633.00;;;16.77;81.80
81970;BME280;71469;51.826;4.394;2023-07-20T00:55:13;101630.00;;;16.72;81.69
81970;BME280;71469;51.826;4.394;2023-07-20T00:57:39;101641.69;;;16.78;81.43
81970;BME280;71469;51.826;4.394;2023-07-20T01:00:07;101641.53;;;16.79;81.30
81970;BME280;71469;51.826;4.394;2023-07-20T01:02:34;101635.47;;;16.79;80.81
81970;BME280;71469;51.826;4.394;2023-07-20T01:05:00;101632.06;;;16.78;80.94
81970;BME280;71469;51.826;4.394;2023-07-20T01:07:39;101628.06;;;16.74;80.85
81970;BME280;71469;51.826;4.394;2023-07-20T01:10:30;101640.19;;;16.66;81.06
81970;BME280;71469;51.826;4.394;2023-07-20T01:13:00;101643.66;;;16.66;81.23
81970;BME280;71469;51.826;4.394;2023-07-20T01:15:25;101649.16;;;16.63;81.10
81970;BME280;71469;51.826;4.394;2023-07-20T01:17:50;101650.66;;;16.56;81.29
81970;BME280;71469;51.826;4.394;2023-07-20T01:20:18;101654.78;;;16.49;81.38
81970;BME280;71469;51.826;4.394;2023-07-20T01:33:44;101647.91;;;16.29;81.59
81970;BME280;71469;51.826;4.394;2023-07-20T01:36:10;101664.16;;;16.32;81.22
81970;BME280;71469;51.826;4.394;2023-07-20T01:38:36;101663.31;;;16.32;81.00
81970;BME280;71469;51.826;4.394;2023-07-20T01:41:03;101653.13;;;16.29;80.97
81970;BME280;71469;51.826;4.394;2023-07-20T01:43:28;101660.56;;;16.24;81.11
81970;BME280;71469;51.826;4.394;2023-07-20T01:45:54;101664.03;;;16.24;80.99
81970;BME280;71469;51.826;4.394;2023-07-20T01:48:19;101657.28;;;16.22;81.04
81970;BME280;71469;51.826;4.394;2023-07-20T01:50:45;101651.06;;;16.23;80.93
81970;BME280;71469;51.826;4.394;2023-07-20T01:53:10;101663.59;;;16.19;81.11
81970;BME280;71469;51.826;4.394;2023-07-20T01:55:36;101666.06;;;16.21;81.17
81970;BME280;71469;51.826;4.394;2023-07-20T01:58:01;101666.34;;;16.18;80.82
81970;BME280;71469;51.826;4.394;2023-07-20T02:00:27;101664.13;;;16.13;80.78
81970;BME280;71469;51.826;4.394;2023-07-20T02:02:52;101657.38;;;16.11;80.89
81970;BME280;71469;51.826;4.394;2023-07-20T02:05:17;101656.72;;;16.09;80.46
81970;BME280;71469;51.826;4.394;2023-07-20T02:07:43;101657.25;;;16.02;80.97
81970;BME280;71469;51.826;4.394;2023-07-20T02:10:09;101664.25;;;16.02;80.99
81970;BME280;71469;51.826;4.394;2023-07-20T02:12:34;101659.44;;;15.97;81.26
81970;BME280;71469;51.826;4.394;2023-07-20T02:15:00;101666.59;;;15.95;81.57
81970;BME280;71469;51.826;4.394;2023-07-20T02:17:25;101660.78;;;15.92;81.57
81970;BME280;71469;51.826;4.394;2023-07-20T02:19:52;101663.28;;;15.93;81.72
81970;BME280;71469;51.826;4.394;2023-07-20T02:22:18;101667.41;;;15.96;81.77
81970;BME280;71469;51.826;4.394;2023-07-20T02:24:44;101677.88;;;15.96;81.77
81970;BME280;71469;51.826;4.394;2023-07-20T02:27:09;101669.91;;;15.97;81.62
81970;BME280;71469;51.826;4.394;2023-07-20T02:29:34;101674.88;;;16.00;81.24
81970;BME280;71469;51.826;4.394;2023-07-20T02:32:01;101675.94;;;15.98;81.58
81970;BME280;71469;51.826;4.394;2023-07-20T02:34:26;101687.22;;;15.98;81.73
81970;BME280;71469;51.826;4.394;2023-07-20T02:36:51;101677.03;;;15.95;81.28
81970;BME280;71469;51.826;4.394;2023-07-20T02:39:17;101685.31;;;16.00;81.18
81970;BME280;71469;51.826;4.394;2023-07-20T02:41:42;101686.97;;;16.01;81.03
81970;BME280;71469;51.826;4.394;2023-07-20T02:44:07;101688.63;;;16.02;81.10
81970;BME280;71469;51.826;4.394;2023-07-20T02:46:33;101669.63;;;15.91;81.24
81970;BME280;71469;51.826;4.394;2023-07-20T02:49:00;101675.41;;;15.94;81.70
81970;BME280;71469;51.826;4.394;2023-07-20T02:51:26;101678.44;;;15.99;81.34
81970;BME280;71469;51.826;4.394;2023-07-20T02:53:51;101676.91;;;15.97;81.46
81970;BME280;71469;51.826;4.394;2023-07-20T02:56:16;101689.84;;;15.98;81.59
81970;BME280;71469;51.826;4.394;2023-07-20T02:58:43;101680.50;;;15.96;81.93
81970;BME280;71469;51.826;4.394;2023-07-20T03:01:09;101691.09;;;15.94;81.73
81970;BME280;71469;51.826;4.394;2023-07-20T03:03:37;101682.53;;;15.92;81.71
81970;BME280;71469;51.826;4.394;2023-07-20T03:06:04;101681.84;;;15.90;81.96
81970;BME280;71469;51.826;4.394;2023-07-20T03:08:29;101683.91;;;15.87;82.07
81970;BME280;71469;51.826;4.394;2023-07-20T03:10:55;101683.34;;;15.83;82.21
81970;BME280;71469;51.826;4.394;2023-07-20T03:13:20;101675.34;;;15.75;81.86
81970;BME280;71469;51.826;4.394;2023-07-20T03:15:45;101677.97;;;15.75;82.14
81970;BME280;71469;51.826;4.394;2023-07-20T03:18:11;101689.09;;;15.77;82.13
81970;BME280;71469;51.826;4.394;2023-07-20T03:20:36;101681.25;;;15.77;82.24
81970;BME280;71469;51.826;4.394;2023-07-20T03:23:02;101684.41;;;15.71;82.08
81970;BME280;71469;51.826;4.394;2023-07-20T03:25:27;101682.22;;;15.67;82.26
81970;BME280;71469;51.826;4.394;2023-07-20T03:27:53;101697.75;;;15.68;82.03
81970;BME280;71469;51.826;4.394;2023-07-20T03:30:18;101686.88;;;15.63;82.33
81970;BME280;71469;51.826;4.394;2023-07-20T03:32:43;101689.06;;;15.58;82.11
81970;BME280;71469;51.826;4.394;2023-07-20T03:35:09;101693.16;;;15.51;82.45
81970;BME280;71469;51.826;4.394;2023-07-20T03:37:34;101697.00;;;15.47;82.37
81970;BME280;71469;51.826;4.394;2023-07-20T03:40:02;101701.63;;;15.43;82.40
81970;BME280;71469;51.826;4.394;2023-07-20T03:42:28;101697.50;;;15.41;82.63
81970;BME280;71469;51.826;4.394;2023-07-20T03:44:53;101700.22;;;15.39;82.54
81970;BME280;71469;51.826;4.394;2023-07-20T03:47:18;101702.25;;;15.36;83.00
81970;BME280;71469;51.826;4.394;2023-07-20T03:49:44;101700.75;;;15.33;82.72
81970;BME280;71469;51.826;4.394;2023-07-20T03:52:09;101695.53;;;15.33;82.88
81970;BME280;71469;51.826;4.394;2023-07-20T03:54:34;101703.50;;;15.32;82.69
81970;BME280;71469;51.826;4.394;2023-07-20T03:56:59;101711.19;;;15.33;82.73
81970;BME280;71469;51.826;4.394;2023-07-20T03:59:26;101705.03;;;15.34;82.40
81970;BME280;71469;51.826;4.394;2023-07-20T04:01:51;101702.97;;;15.38;82.41
81970;BME280;71469;51.826;4.394;2023-07-20T04:04:16;101701.31;;;15.37;82.15
81970;BME280;71469;51.826;4.394;2023-07-20T04:06:42;101692.66;;;15.36;82.40
81970;BME280;71469;51.826;4.394;2023-07-20T04:09:10;101704.09;;;15.45;82.72
81970;BME280;71469;51.826;4.394;2023-07-20T04:11:36;101697.09;;;15.45;82.14
81970;BME280;71469;51.826;4.394;2023-07-20T04:14:01;101708.13;;;15.49;82.25
81970;BME280;71469;51.826;4.394;2023-07-20T04:16:26;101701.13;;;15.49;82.28
81970;BME280;71469;51.826;4.394;2023-07-20T04:18:55;101698.09;;;15.54;82.49
81970;BME280;71469;51.826;4.394;2023-07-20T04:21:21;101704.28;;;15.53;83.01
81970;BME280;71469;51.826;4.394;2023-07-20T04:23:46;101700.72;;;15.54;82.97
81970;BME280;71469;51.826;4.394;2023-07-20T04:26:12;101703.75;;;15.49;82.99
81970;BME280;71469;51.826;4.394;2023-07-20T04:28:38;101712.13;;;15.53;83.04
81970;BME280;71469;51.826;4.394;2023-07-20T04:31:12;101711.84;;;15.56;83.07
81970;BME280;71469;51.826;4.394;2023-07-20T04:33:38;101701.97;;;15.60;82.42
81970;BME280;71469;51.826;4.394;2023-07-20T04:36:03;101710.81;;;15.68;82.31
81970;BME280;71469;51.826;4.394;2023-07-20T04:38:29;101697.88;;;15.67;82.10
81970;BME280;71469;51.826;4.394;2023-07-20T04:40:55;101706.97;;;15.72;82.16
81970;BME280;71469;51.826;4.394;2023-07-20T04:43:20;101706.41;;;15.69;81.84
81970;BME280;71469;51.826;4.394;2023-07-20T04:45:45;101710.00;;;15.68;81.12
81970;BME280;71469;51.826;4.394;2023-07-20T04:48:13;101717.97;;;15.66;81.09
81970;BME280;71469;51.826;4.394;2023-07-20T04:50:42;101716.56;;;15.62;81.10
81970;BME280;71469;51.826;4.394;2023-07-20T04:53:09;101709.41;;;15.55;81.32
81970;BME280;71469;51.826;4.394;2023-07-20T04:55:36;101720.00;;;15.63;80.90
81970;BME280;71469;51.826;4.394;2023-07-20T04:58:02;101718.38;;;15.62;81.31
81970;BME280;71469;51.826;4.394;2023-07-20T05:00:29;101707.34;;;15.58;81.05
81970;BME280;71469;51.826;4.394;2023-07-20T05:02:55;101717.41;;;15.63;80.99
81970;BME280;71469;51.826;4.394;2023-07-20T05:05:20;101703.50;;;15.62;81.19
81970;BME280;71469;51.826;4.394;2023-07-20T05:07:46;101703.22;;;15.65;80.75
81970;BME280;71469;51.826;4.394;2023-07-20T05:10:11;101706.56;;;15.67;80.83
81970;BME280;71469;51.826;4.394;2023-07-20T05:12:36;101706.28;;;15.70;80.85
81970;BME280;71469;51.826;4.394;2023-07-20T05:15:02;101711.94;;;15.75;80.79
81970;BME280;71469;51.826;4.394;2023-07-20T05:17:28;101718.56;;;15.79;80.99
81970;BME280;71469;51.826;4.394;2023-07-20T05:19:54;101716.91;;;15.78;80.75
81970;BME280;71469;51.826;4.394;2023-07-20T05:22:19;101724.88;;;15.77;80.66
81970;BME280;71469;51.826;4.394;2023-07-20T05:24:45;101715.25;;;15.77;80.90
81970;BME280;71469;51.826;4.394;2023-07-20T05:27:10;101729.31;;;15.86;80.77
81970;BME280;71469;51.826;4.394;2023-07-20T05:29:36;101720.22;;;15.90;80.38
81970;BME280;71469;51.826;4.394;2023-07-20T05:32:01;101714.75;;;15.93;80.62
81970;BME280;71469;51.826;4.394;2023-07-20T05:34:27;101712.00;;;15.94;80.97
81970;BME280;71469;51.826;4.394;2023-07-20T05:36:53;101717.78;;;15.98;80.94
81970;BME280;71469;51.826;4.394;2023-07-20T05:39:18;101716.97;;;16.07;81.02
81970;BME280;71469;51.826;4.394;2023-07-20T05:41:43;101718.34;;;16.11;80.47
81970;BME280;71469;51.826;4.394;2023-07-20T05:44:09;101726.34;;;16.19;80.58
81970;BME280;71469;51.826;4.394;2023-07-20T05:46:34;101728.31;;;16.27;80.37
81970;BME280;71469;51.826;4.394;2023-07-20T05:49:00;101718.94;;;16.34;80.38
81970;BME280;71469;51.826;4.394;2023-07-20T05:51:25;101721.16;;;16.38;80.11
81970;BME280;71469;51.826;4.394;2023-07-20T05:53:50;101723.34;;;16.43;79.65
81970;BME280;71469;51.826;4.394;2023-07-20T05:56:16;101723.78;;;16.48;79.74
81970;BME280;71469;51.826;4.394;2023-07-20T05:58:42;101724.19;;;16.53;79.29
81970;BME280;71469;51.826;4.394;2023-07-20T06:01:07;101718.44;;;16.59;78.97
81970;BME280;71469;51.826;4.394;2023-07-20T06:03:32;101725.19;;;16.62;78.74
81970;BME280;71469;51.826;4.394;2023-07-20T06:06:03;101717.88;;;16.65;78.92
81970;BME280;71469;51.826;4.394;2023-07-20T06:08:29;101726.13;;;16.70;78.33
81970;BME280;71469;51.826;4.394;2023-07-20T06:10:54;101728.63;;;16.72;78.39
81970;BME280;71469;51.826;4.394;2023-07-20T06:13:20;101720.91;;;16.70;78.25
81970;BME280;71469;51.826;4.394;2023-07-20T06:15:45;101728.75;;;16.70;78.11
81970;BME280;71469;51.826;4.394;2023-07-20T06:18:12;101728.06;;;16.68;78.29
81970;BME280;71469;51.826;4.394;2023-07-20T06:20:37;101728.63;;;16.62;78.47
81970;BME280;71469;51.826;4.394;2023-07-20T06:23:03;101728.63;;;16.62;78.59
81970;BME280;71469;51.826;4.394;2023-07-20T06:25:28;101734.41;;;16.66;78.83
81970;BME280;71469;51.826;4.394;2023-07-20T06:27:55;101736.88;;;16.67;78.56
81970;BME280;71469;51.826;4.394;2023-07-20T06:30:20;101735.66;;;16.71;78.84
81970;BME280;71469;51.826;4.394;2023-07-20T06:32:46;101733.88;;;16.72;78.90
81970;BME280;71469;51.826;4.394;2023-07-20T06:35:11;101739.38;;;16.69;78.77
81970;BME280;71469;51.826;4.394;2023-07-20T06:37:37;101736.88;;;16.67;78.40
81970;BME280;71469;51.826;4.394;2023-07-20T06:40:03;101736.47;;;16.62;78.66
81970;BME280;71469;51.826;4.394;2023-07-20T06:42:29;101738.25;;;16.62;79.18
81970;BME280;71469;51.826;4.394;2023-07-20T06:44:55;101734.16;;;16.78;78.94
81970;BME280;71469;51.826;4.394;2023-07-20T06:47:20;101737.16;;;16.83;79.23
81970;BME280;71469;51.826;4.394;2023-07-20T06:49:45;101738.41;;;16.79;78.81
81970;BME280;71469;51.826;4.394;2023-07-20T06:52:11;101735.78;;;16.79;78.86
81970;BME280;71469;51.826;4.394;2023-07-20T06:54:36;101740.88;;;16.81;79.07
81970;BME280;71469;51.826;4.394;2023-07-20T06:57:01;101731.38;;;16.80;78.73
81970;BME280;71469;51.826;4.394;2023-07-20T06:59:27;101738.81;;;16.84;78.43
81970;BME280;71469;51.826;4.394;2023-07-20T07:01:52;101735.22;;;16.85;78.35
81970;BME280;71469;51.826;4.394;2023-07-20T07:04:17;101744.19;;;17.02;77.84
81970;BME280;71469;51.826;4.394;2023-07-20T07:06:43;101742.72;;;17.27;77.03
81970;BME280;71469;51.826;4.394;2023-07-20T07:09:09;101738.09;;;17.48;76.77
81970;BME280;71469;51.826;4.394;2023-07-20T07:11:35;101742.75;;;17.73;75.40
81970;BME280;71469;51.826;4.394;2023-07-20T07:14:00;101742.03;;;17.98;73.72
81970;BME280;71469;51.826;4.394;2023-07-20T07:16:25;101738.69;;;18.06;73.48
81970;BME280;71469;51.826;4.394;2023-07-20T07:18:51;101710.88;;;17.95;72.18
81970;BME280;71469;51.826;4.394;2023-07-20T07:21:16;101738.94;;;18.12;71.45
81970;BME280;71469;51.826;4.394;2023-07-20T07:23:42;101737.56;;;18.08;71.32
81970;BME280;71469;51.826;4.394;2023-07-20T07:26:08;101732.63;;;18.05;70.81
81970;BME280;71469;51.826;4.394;2023-07-20T07:28:33;101733.22;;;17.99;70.83
81970;BME280;71469;51.826;4.394;2023-07-20T07:30:59;101739.13;;;18.01;70.82
81970;BME280;71469;51.826;4.394;2023-07-20T07:33:24;101729.63;;;18.00;69.80
81970;BME280;71469;51.826;4.394;2023-07-20T07:35:50;101731.56;;;17.98;69.54
81970;BME280;71469;51.826;4.394;2023-07-20T07:38:17;101741.25;;;17.98;69.62
81970;BME280;71469;51.826;4.394;2023-07-20T07:40:43;101732.88;;;17.85;69.60
81970;BME280;71469;51.826;4.394;2023-07-20T07:43:08;101740.59;;;17.86;69.68
81970;BME280;71469;51.826;4.394;2023-07-20T07:45:35;101744.16;;;17.95;68.95
81970;BME280;71469;51.826;4.394;2023-07-20T07:48:04;101740.47;;;17.88;69.74
81970;BME280;71469;51.826;4.394;2023-07-20T07:50:30;101756.22;;;17.78;69.89
81970;BME280;71469;51.826;4.394;2023-07-20T07:52:55;101756.03;;;17.62;70.26
81970;BME280;71469;51.826;4.394;2023-07-20T07:55:21;101760.44;;;17.52;70.47
81970;BME280;71469;51.826;4.394;2023-07-20T07:57:46;101753.19;;;17.36;70.66
81970;BME280;71469;51.826;4.394;2023-07-20T08:00:13;101755.38;;;17.41;70.45
81970;BME280;71469;51.826;4.394;2023-07-20T08:02:41;101757.59;;;17.36;70.88
81970;BME280;71469;51.826;4.394;2023-07-20T08:05:07;101759.25;;;17.56;70.87
81970;BME280;71469;51.826;4.394;2023-07-20T08:07:32;101751.16;;;18.04;69.70
81970;BME280;71469;51.826;4.394;2023-07-20T08:09:57;101758.47;;;18.28;68.86
81970;BME280;71469;51.826;4.394;2023-07-20T08:12:24;101750.19;;;18.22;69.18
81970;BME280;71469;51.826;4.394;2023-07-20T08:14:51;101756.97;;;18.43;68.88
81970;BME280;71469;51.826;4.394;2023-07-20T08:17:16;101752.78;;;18.67;68.29
81970;BME280;71469;51.826;4.394;2023-07-20T08:19:42;101757.72;;;18.88;67.64
81970;BME280;71469;51.826;4.394;2023-07-20T08:22:07;101755.59;;;19.09;67.40
81970;BME280;71469;51.826;4.394;2023-07-20T08:24:32;101760.34;;;19.31;65.82
81970;BME280;71469;51.826;4.394;2023-07-20T08:26:58;101758.66;;;19.48;65.81
81970;BME280;71469;51.826;4.394;2023-07-20T08:29:24;101755.50;;;19.70;65.69
81970;BME280;71469;51.826;4.394;2023-07-20T08:31:49;101759.41;;;20.08;64.03
81970;BME280;71469;51.826;4.394;2023-07-20T08:34:15;101754.72;;;20.28;62.78
81970;BME280;71469;51.826;4.394;2023-07-20T08:36:40;101757.06;;;19.97;62.20
81970;BME280;71469;51.826;4.394;2023-07-20T08:39:06;101734.97;;;19.82;62.30
81970;BME280;71469;51.826;4.394;2023-07-20T08:41:34;101742.28;;;20.04;62.19
81970;BME280;71469;51.826;4.394;2023-07-20T08:44:00;101740.34;;;20.22;60.47
81970;BME280;71469;51.826;4.394;2023-07-20T08:46:27;101748.22;;;20.14;60.87
81970;BME280;71469;51.826;4.394;2023-07-20T08:48:54;101743.72;;;20.40;60.63
81970;BME280;71469;51.826;4.394;2023-07-20T08:51:20;101740.13;;;20.74;59.66
81970;BME280;71469;51.826;4.394;2023-07-20T08:53:47;101746.53;;;20.79;59.45
81970;BME280;71469;51.826;4.394;2023-07-20T08:56:13;101750.31;;;21.01;58.79
81970;BME280;71469;51.826;4.394;2023-07-20T08:58:43;101749.00;;;21.13;57.95
81970;BME280;71469;51.826;4.394;2023-07-20T09:01:09;101738.13;;;20.76;56.54
81970;BME280;71469;51.826;4.394;2023-07-20T09:03:35;101739.44;;;20.80;57.65
81970;BME280;71469;51.826;4.394;2023-07-20T09:06:03;101739.13;;;20.99;56.58
81970;BME280;71469;51.826;4.394;2023-07-20T09:08:28;101741.41;;;20.94;57.08
81970;BME280;71469;51.826;4.394;2023-07-20T09:10:54;101742.06;;;21.04;55.79
81970;BME280;71469;51.826;4.394;2023-07-20T09:13:19;101735.16;;;20.95;56.06
81970;BME280;71469;51.826;4.394;2023-07-20T09:15:49;101746.34;;;21.29;55.41
81970;BME280;71469;51.826;4.394;2023-07-20T09:18:29;101743.22;;;21.73;54.94
81970;BME280;71469;51.826;4.394;2023-07-20T09:20:58;101743.44;;;22.10;53.65
81970;BME280;71469;51.826;4.394;2023-07-20T09:23:38;101739.63;;;22.35;53.34
81970;BME280;71469;51.826;4.394;2023-07-20T09:26:14;101717.19;;;22.54;52.53
81970;BME280;71469;51.826;4.394;2023-07-20T09:28:48;101747.38;;;22.59;51.54
81970;BME280;71469;51.826;4.394;2023-07-20T09:31:18;101737.34;;;22.32;52.24
81970;BME280;71469;51.826;4.394;2023-07-20T09:33:44;101740.56;;;22.42;51.87
81970;BME280;71469;51.826;4.394;2023-07-20T09:36:10;101741.50;;;22.49;52.52
81970;BME280;71469;51.826;4.394;2023-07-20T09:38:39;101727.28;;;22.50;51.82
81970;BME280;71469;51.826;4.394;2023-07-20T09:41:05;101739.69;;;22.27;51.07
81970;BME280;71469;51.826;4.394;2023-07-20T09:43:34;101720.38;;;21.96;52.63
81970;BME280;71469;51.826;4.394;2023-07-20T09:45:59;101737.59;;;21.92;53.23
81970;BME280;71469;51.826;4.394;2023-07-20T09:48:25;101741.88;;;21.85;52.66
81970;BME280;71469;51.826;4.394;2023-07-20T09:50:52;101740.00;;;21.55;52.80
81970;BME280;71469;51.826;4.394;2023-07-20T09:53:19;101739.34;;;21.52;53.14
81970;BME280;71469;51.826;4.394;2023-07-20T09:55:46;101734.56;;;21.56;52.57
81970;BME280;71469;51.826;4.394;2023-07-20T09:58:12;101739.56;;;21.43;53.05
81970;BME280;71469;51.826;4.394;2023-07-20T10:00:39;101741.16;;;21.52;52.54
81970;BME280;71469;51.826;4.394;2023-07-20T10:03:05;101738.00;;;21.57;52.45
81970;BME280;71469;51.826;4.394;2023-07-20T10:05:37;101730.44;;;21.62;52.32
81970;BME280;71469;51.826;4.394;2023-07-20T10:08:11;101734.38;;;21.58;51.52
81970;BME280;71469;51.826;4.394;2023-07-20T10:10:38;101734.72;;;21.55;51.96
81970;BME280;71469;51.826;4.394;2023-07-20T10:13:10;101731.94;;;21.87;51.05
81970;BME280;71469;51.826;4.394;2023-07-20T10:16:03;101733.31;;;21.83;51.08
81970;BME280;71469;51.826;4.394;2023-07-20T10:18:34;101732.31;;;21.92;51.18
81970;BME280;71469;51.826;4.394;2023-07-20T10:21:06;101728.16;;;21.89;51.30
81970;BME280;71469;51.826;4.394;2023-07-20T10:23:32;101727.81;;;22.23;50.57
81970;BME280;71469;51.826;4.394;2023-07-20T10:25:58;101711.22;;;22.15;50.55
81970;BME280;71469;51.826;4.394;2023-07-20T10:28:24;101706.13;;;22.36;50.45
81970;BME280;71469;51.826;4.394;2023-07-20T10:30:50;101718.38;;;22.51;49.63
81970;BME280;71469;51.826;4.394;2023-07-20T10:33:16;101722.47;;;22.31;50.06
81970;BME280;71469;51.826;4.394;2023-07-20T10:38:17;101725.84;;;22.71;48.90
81970;BME280;71469;51.826;4.394;2023-07-20T10:40:53;101717.78;;;22.41;48.61
81970;BME280;71469;51.826;4.394;2023-07-20T10:43:19;101721.41;;;21.95;49.81
81970;BME280;71469;51.826;4.394;2023-07-20T10:45:50;101722.47;;;21.70;49.99
81970;BME280;71469;51.826;4.394;2023-07-20T10:48:23;101719.53;;;21.65;50.55
81970;BME280;71469;51.826;4.394;2023-07-20T10:51:09;101716.16;;;21.79;50.26
81970;BME280;71469;51.826;4.394;2023-07-20T10:53:35;101716.34;;;22.08;50.18
81970;BME280;71469;51.826;4.394;2023-07-20T10:56:13;101708.34;;;22.24;49.00
81970;BME280;71469;51.826;4.394;2023-07-20T10:58:40;101707.56;;;22.38;48.76
81970;BME280;71469;51.826;4.394;2023-07-20T11:01:07;101710.44;;;22.29;48.27
81970;BME280;71469;51.826;4.394;2023-07-20T11:03:34;101712.94;;;21.61;49.70
81970;BME280;71469;51.826;4.394;2023-07-20T11:11:33;101708.78;;;22.05;48.71
81970;BME280;71469;51.826;4.394;2023-07-20T11:14:02;101708.16;;;22.03;48.48
81970;BME280;71469;51.826;4.394;2023-07-20T11:16:39;101708.38;;;22.16;48.90
81970;BME280;71469;51.826;4.394;2023-07-20T11:19:13;101700.63;;;22.37;48.68
81970;BME280;71469;51.826;4.394;2023-07-20T11:21:41;101695.34;;;22.37;48.71
81970;BME280;71469;51.826;4.394;2023-07-20T11:24:07;101701.94;;;22.19;49.20
81970;BME280;71469;51.826;4.394;2023-07-20T11:26:52;101694.81;;;22.19;49.38
81970;BME280;71469;51.826;4.394;2023-07-20T11:29:19;101689.38;;;22.43;48.05
81970;BME280;71469;51.826;4.394;2023-07-20T11:31:45;101696.19;;;22.60;47.75
81970;BME280;71469;51.826;4.394;2023-07-20T11:34:12;101679.03;;;22.56;47.26
81970;BME280;71469;51.826;4.394;2023-07-20T11:36:43;101685.47;;;22.77;46.74
81970;BME280;71469;51.826;4.394;2023-07-20T11:39:14;101681.31;;;22.59;47.64
81970;BME280;71469;51.826;4.394;2023-07-20T11:41:44;101681.41;;;22.89;46.93
81970;BME280;71469;51.826;4.394;2023-07-20T11:44:11;101676.59;;;23.07;46.29
81970;BME280;71469;51.826;4.394;2023-07-20T11:46:39;101685.53;;;23.35;45.67
81970;BME280;71469;51.826;4.394;2023-07-20T11:49:05;101681.03;;;23.36;45.11
81970;BME280;71469;51.826;4.394;2023-07-20T11:51:31;101676.22;;;23.10;45.04
81970;BME280;71469;51.826;4.394;2023-07-20T11:53:57;101686.41;;;22.84;45.42
81970;BME280;71469;51.826;4.394;2023-07-20T11:56:24;101677.13;;;22.88;45.54
81970;BME280;71469;51.826;4.394;2023-07-20T11:58:50;101673.69;;;23.02;45.38
81970;BME280;71469;51.826;4.394;2023-07-20T12:01:19;101675.03;;;22.83;45.69
81970;BME280;71469;51.826;4.394;2023-07-20T12:03:45;101676.38;;;22.94;46.14
81970;BME280;71469;51.826;4.394;2023-07-20T12:06:11;101670.03;;;23.18;45.70
81970;BME280;71469;51.826;4.394;2023-07-20T12:08:41;101673.47;;;23.18;44.96
81970;BME280;71469;51.826;4.394;2023-07-20T12:11:07;101687.53;;;23.04;45.84
81970;BME280;71469;51.826;4.394;2023-07-20T12:13:42;101679.38;;;22.91;45.79
81970;BME280;71469;51.826;4.394;2023-07-20T12:16:14;101674.09;;;22.91;45.52
81970;BME280;71469;51.826;4.394;2023-07-20T12:18:41;101678.09;;;22.72;45.65
81970;BME280;71469;51.826;4.394;2023-07-20T12:21:07;101671.06;;;22.65;46.03
81970;BME280;71469;51.826;4.394;2023-07-20T12:23:38;101674.69;;;22.64;46.03
81970;BME280;71469;51.826;4.394;2023-07-20T12:26:10;101670.09;;;22.43;45.71
81970;BME280;71469;51.826;4.394;2023-07-20T12:28:39;101665.06;;;22.25;45.94
81970;BME280;71469;51.826;4.394;2023-07-20T12:31:05;101682.09;;;22.45;46.29
81970;BME280;71469;51.826;4.394;2023-07-20T12:33:31;101663.06;;;22.73;45.63
81970;BME280;71469;51.826;4.394;2023-07-20T12:35:56;101672.56;;;22.59;45.08
81970;BME280;71469;51.826;4.394;2023-07-20T12:38:24;101662.00;;;22.82;44.68
81970;BME280;71469;51.826;4.394;2023-07-20T12:40:49;101656.00;;;23.02;43.71
81970;BME280;71469;51.826;4.394;2023-07-20T12:43:15;101658.78;;;23.30;42.51
81970;BME280;71469;51.826;4.394;2023-07-20T12:45:40;101649.59;;;23.55;42.12
81970;BME280;71469;51.826;4.394;2023-07-20T12:48:06;101654.09;;;23.40;42.08
81970;BME280;71469;51.826;4.394;2023-07-20T12:50:31;101657.72;;;22.95;43.66
81970;BME280;71469;51.826;4.394;2023-07-20T12:52:58;101654.91;;;22.59;45.30
81970;BME280;71469;51.826;4.394;2023-07-20T12:55:23;101655.31;;;22.71;45.16
81970;BME280;71469;51.826;4.394;2023-07-20T12:57:48;101647.03;;;23.03;44.84
81970;BME280;71469;51.826;4.394;2023-07-20T13:00:15;101636.38;;;22.97;44.83
81970;BME280;71469;51.826;4.394;2023-07-20T13:02:41;101636.81;;;23.15;44.40
81970;BME280;71469;51.826;4.394;2023-07-20T13:05:07;101639.44;;;23.30;44.19
81970;BME280;71469;51.826;4.394;2023-07-20T13:07:36;101639.84;;;23.12;43.39